Time;durP1;ratioP1;P1;durP2;ratioP2;P2;SDS_P1;SDS_P2;PMS_P1;PMS_P2;Temp;Humidity;BMP_temperature;BMP_pressure;BME280_temperature;BME280_humidity;BME280_pressure;Samples;Min_cycle;Max_cycle;Signal;HPM_P1;HPM_P2
2022/03/30 00:00:46;;;;;;;28.02;15.52;;;;;;;8.83;62.01;95393.47;2063567;28;20229;-61
2022/03/30 00:01:48;;;;;;;42.75;17.38;;;;;;;8.80;62.12;95396.34;2064057;28;20236;-61
2022/03/30 00:02:51;;;;;;;36.63;16.92;;;;;;;8.75;62.30;95395.06;2063772;28;20194;-61
2022/03/30 00:03:52;;;;;;;42.33;16.85;;;;;;;8.79;62.55;95396.47;2064156;28;20202;-61
2022/03/30 00:04:54;;;;;;;37.88;16.73;;;;;;;8.77;62.81;95393.97;2064128;28;20706;-60
2022/03/30 00:05:56;;;;;;;31.98;16.73;;;;;;;8.52;62.99;95390.69;2063561;28;20717;-61
2022/03/30 00:06:58;;;;;;;41.65;17.02;;;;;;;8.50;63.50;95399.59;2063953;28;20202;-60
2022/03/30 00:07:59;;;;;;;37.33;16.55;;;;;;;8.38;64.58;95398.78;2063990;28;20554;-61
2022/03/30 00:09:01;;;;;;;35.72;17.33;;;;;;;8.48;64.05;95386.69;2063950;28;20198;-61
2022/03/30 00:10:04;;;;;;;43.25;17.75;;;;;;;8.60;64.06;95391.88;2064093;28;20217;-60
2022/03/30 00:11:05;;;;;;;37.25;17.65;;;;;;;8.65;64.10;95395.78;2063217;28;20744;-61
2022/03/30 00:12:07;;;;;;;33.65;16.88;;;;;;;8.73;63.95;95403.00;2063901;28;20547;-61
2022/03/30 00:13:09;;;;;;;29.25;15.70;;;;;;;8.75;63.92;95401.09;2064098;28;20209;-61
2022/03/30 00:14:12;;;;;;;30.48;16.60;;;;;;;8.70;63.47;95400.63;2063067;28;20202;-61
2022/03/30 00:15:15;;;;;;;33.30;16.27;;;;;;;8.67;63.48;95409.53;2063686;28;20536;-60
2022/03/30 00:16:17;;;;;;;29.88;16.65;;;;;;;8.56;63.52;95398.28;2063400;28;20237;-61
2022/03/30 00:17:18;;;;;;;35.70;18.25;;;;;;;8.55;63.69;95407.09;2064132;28;20784;-61
2022/03/30 00:18:20;;;;;;;46.95;17.33;;;;;;;8.45;63.91;95404.38;2064083;28;20206;-61
2022/03/30 00:19:21;;;;;;;36.13;16.52;;;;;;;8.31;64.33;95413.22;2063902;28;20206;-60
2022/03/30 00:20:23;;;;;;;35.03;18.00;;;;;;;8.19;64.60;95414.19;2063583;28;20211;-61
2022/03/30 00:21:24;;;;;;;29.60;16.88;;;;;;;8.03;64.86;95402.34;2062429;28;20551;-60
2022/03/30 00:22:26;;;;;;;39.42;18.50;;;;;;;7.97;65.17;95410.66;2065412;28;20205;-60
2022/03/30 00:23:28;;;;;;;34.65;18.05;;;;;;;7.89;65.97;95410.41;2065581;28;20669;-60
2022/03/30 00:24:29;;;;;;;38.40;17.38;;;;;;;7.86;66.43;95419.31;2065586;28;20199;-60
2022/03/30 00:25:31;;;;;;;40.45;19.33;;;;;;;7.76;66.97;95413.13;2065189;28;20584;-60
2022/03/30 00:26:33;;;;;;;40.40;18.33;;;;;;;7.80;67.47;95421.53;2065441;28;20210;-61
2022/03/30 00:27:35;;;;;;;38.08;17.38;;;;;;;7.79;67.36;95406.88;2065520;28;20210;-61
2022/03/30 00:28:36;;;;;;;32.17;17.17;;;;;;;7.92;67.50;95411.00;2065595;28;20345;-60
2022/03/30 00:29:38;;;;;;;40.65;17.55;;;;;;;8.05;67.35;95412.66;2065449;28;20199;-60
2022/03/30 00:30:40;;;;;;;49.10;20.02;;;;;;;8.07;67.57;95410.78;2064745;28;20194;-60
2022/03/30 00:31:42;;;;;;;45.80;20.38;;;;;;;8.08;66.82;95408.06;2065009;28;20214;-60
2022/03/30 00:32:44;;;;;;;39.03;17.90;;;;;;;8.10;67.90;95400.94;2065353;28;20195;-60
2022/03/30 00:33:46;;;;;;;39.83;17.60;;;;;;;8.14;68.31;95398.94;2065488;28;20607;-60
2022/03/30 00:34:47;;;;;;;37.63;19.25;;;;;;;8.23;68.06;95399.97;2065418;28;20233;-60
2022/03/30 00:35:49;;;;;;;39.63;18.50;;;;;;;8.10;69.01;95400.13;2065085;28;20228;-60
2022/03/30 00:36:51;;;;;;;36.63;16.92;;;;;;;8.16;68.63;95394.41;2065563;28;20205;-60
2022/03/30 00:37:52;;;;;;;51.03;18.33;;;;;;;8.25;67.89;95390.25;2065486;28;20200;-61
2022/03/30 00:38:54;;;;;;;40.25;19.17;;;;;;;8.23;68.97;95384.31;2065187;28;20573;-60
2022/03/30 00:39:55;;;;;;;37.78;19.02;;;;;;;8.25;68.33;95372.00;2065421;28;20210;-60
2022/03/30 00:40:56;;;;;;;46.63;18.02;;;;;;;8.36;68.37;95378.97;2065062;28;20685;-60
2022/03/30 00:41:58;;;;;;;35.70;17.73;;;;;;;8.47;69.02;95386.81;2065465;28;20198;-60
2022/03/30 00:42:59;;;;;;;37.30;17.95;;;;;;;8.49;69.27;95385.75;2065429;28;20198;-60
2022/03/30 00:44:12;;;;;;;36.45;18.80;;;;;;;8.32;71.97;95370.56;2065498;28;20195;-60
2022/03/30 00:45:21;;;;;;;27.85;16.55;;;;;;;8.36;72.02;95371.97;2065118;28;20881;-60
2022/03/30 00:46:23;;;;;;;41.83;18.10;;;;;;;8.36;72.44;95363.31;2065013;28;20222;-60
2022/03/30 00:47:26;;;;;;;36.15;17.70;;;;;;;8.46;71.78;95378.16;2065377;28;20553;-60
2022/03/30 00:48:28;;;;;;;37.47;19.50;;;;;;;8.51;71.53;95372.56;2065439;28;20202;-61
2022/03/30 00:49:29;;;;;;;36.78;17.60;;;;;;;8.51;71.47;95373.41;2065218;28;20241;-61
2022/03/30 00:50:31;;;;;;;32.03;17.63;;;;;;;8.58;70.68;95367.69;2067622;28;20219;-61
2022/03/30 00:51:32;;;;;;;41.97;17.70;;;;;;;8.66;70.38;95371.34;2066607;28;20255;-61
2022/03/30 00:52:34;;;;;;;45.03;17.27;;;;;;;8.63;70.07;95363.75;2065359;28;20198;-61
2022/03/30 00:53:36;;;;;;;36.88;17.83;;;;;;;8.68;70.16;95371.22;2064710;28;20704;-60
2022/03/30 00:54:41;;;;;;;38.90;17.67;;;;;;;8.66;69.66;95371.34;2065351;28;20626;-61
2022/03/30 00:55:43;;;;;;;37.38;16.67;;;;;;;8.71;70.21;95376.19;2063668;28;20591;-61
2022/03/30 00:56:44;;;;;;;38.38;17.73;;;;;;;8.72;69.60;95370.00;2064812;28;20206;-61
2022/03/30 00:57:47;;;;;;;39.70;18.08;;;;;;;8.53;70.84;95370.69;2065376;28;20194;-60
2022/03/30 00:58:49;;;;;;;34.50;17.98;;;;;;;8.56;71.31;95374.81;2065274;28;20210;-61
2022/03/30 00:59:51;;;;;;;46.05;18.30;;;;;;;8.58;70.43;95378.94;2065289;28;20203;-60
2022/03/30 01:00:53;;;;;;;44.28;17.58;;;;;;;8.32;72.15;95374.00;2064584;28;20226;-60
2022/03/30 01:01:54;;;;;;;36.15;17.00;;;;;;;8.46;71.82;95380.75;2065011;28;20202;-60
2022/03/30 01:02:56;;;;;;;40.33;19.00;;;;;;;8.39;72.40;95374.34;2064959;28;20808;-61
2022/03/30 01:04:01;;;;;;;39.05;18.75;;;;;;;8.46;72.39;95379.94;2064958;28;20244;-61
2022/03/30 01:05:03;;;;;;;46.00;17.33;;;;;;;8.54;72.59;95384.53;2065233;28;20202;-60
2022/03/30 01:06:05;;;;;;;30.48;16.15;;;;;;;8.68;72.10;95382.50;2064463;28;20226;-60
2022/03/30 01:07:07;;;;;;;40.65;17.98;;;;;;;8.63;71.91;95382.03;2065240;28;20198;-60
2022/03/30 01:08:08;;;;;;;37.13;17.77;;;;;;;8.67;72.04;95374.78;2065271;28;20583;-60
2022/03/30 01:09:09;;;;;;;35.03;16.23;;;;;;;8.66;71.99;95379.19;2065269;28;20209;-60
2022/03/30 01:10:12;;;;;;;49.95;18.52;;;;;;;8.65;72.74;95380.13;2065248;28;20225;-61
2022/03/30 01:11:15;;;;;;;35.03;18.75;;;;;;;8.61;72.87;95372.69;2064262;28;20237;-61
2022/03/30 01:12:17;;;;;;;40.25;17.92;;;;;;;8.64;72.50;95372.41;2065039;28;20591;-60
2022/03/30 01:13:21;;;;;;;37.80;17.10;;;;;;;8.69;72.89;95367.66;2064175;28;20668;-61
2022/03/30 01:14:23;;;;;;;40.95;18.00;;;;;;;8.73;73.08;95368.25;2064553;28;20558;-61
2022/03/30 01:15:24;;;;;;;28.95;16.88;;;;;;;8.61;75.51;95370.88;2064605;28;20210;-61
2022/03/30 01:16:29;;;;;;;43.47;19.48;;;;;;;8.48;76.31;95371.03;2065054;28;20205;-61
2022/03/30 01:17:30;;;;;;;35.95;17.38;;;;;;;8.39;76.59;95357.84;2065218;28;20853;-61
2022/03/30 01:18:39;;;;;;;50.58;18.23;;;;;;;8.55;77.10;95367.94;2064611;28;20198;-61
2022/03/30 01:19:41;;;;;;;37.03;18.83;;;;;;;8.49;77.30;95357.03;2063679;28;20203;-61
2022/03/30 01:20:51;;;;;;;40.42;18.60;;;;;;;8.50;76.71;95355.25;2064686;28;20230;-60
2022/03/30 01:21:53;;;;;;;35.42;17.63;;;;;;;8.50;76.51;95357.84;2064533;28;20202;-60
2022/03/30 01:22:55;;;;;;;41.00;19.02;;;;;;;8.48;75.91;95344.09;2069010;28;20252;-61
2022/03/30 01:23:56;;;;;;;39.22;19.15;;;;;;;8.51;76.47;95349.91;2064955;28;20708;-61
2022/03/30 01:24:58;;;;;;;42.33;20.30;;;;;;;8.55;76.43;95341.84;2064954;28;20852;-61
2022/03/30 01:25:59;;;;;;;39.97;18.25;;;;;;;8.47;76.50;95343.28;2064381;28;20237;-60
2022/03/30 01:27:02;;;;;;;38.67;18.23;;;;;;;8.49;76.72;95341.38;2064513;28;20202;-61
2022/03/30 01:28:04;;;;;;;39.03;17.80;;;;;;;8.47;76.81;95345.06;2065068;28;20230;-61
2022/03/30 01:32:25;;;;;;;35.55;18.95;;;;;;;8.20;77.16;95341.06;2064777;28;20610;-61
2022/03/30 01:33:08;;;;;;;39.83;18.58;;;;;;;8.02;77.45;95332.91;2064620;28;20278;-61
2022/03/30 01:34:11;;;;;;;35.20;18.67;;;;;;;8.12;77.73;95335.63;2064033;28;20650;-61
2022/03/30 01:35:13;;;;;;;34.95;18.38;;;;;;;8.19;78.83;95328.97;2063790;28;20206;-61
2022/03/30 01:36:18;;;;;;;37.53;19.55;;;;;;;8.24;78.39;95323.41;2064577;28;20555;-61
2022/03/30 01:37:20;;;;;;;36.15;19.70;;;;;;;8.29;78.69;95323.84;2065047;28;20545;-61
2022/03/30 01:38:21;;;;;;;48.92;20.80;;;;;;;8.30;78.89;95328.13;2064862;28;20205;-61
2022/03/30 01:39:23;;;;;;;31.55;18.17;;;;;;;8.29;79.38;95323.84;2064917;28;20390;-61
2022/03/30 01:40:24;;;;;;;42.75;19.23;;;;;;;8.24;78.78;95320.78;2064072;28;20554;-61
2022/03/30 01:41:26;;;;;;;39.72;19.95;;;;;;;8.29;78.03;95316.03;2064313;28;20257;-61
2022/03/30 01:42:28;;;;;;;32.67;17.60;;;;;;;8.29;77.05;95322.09;2065032;28;20208;-61
2022/03/30 01:43:29;;;;;;;35.97;18.23;;;;;;;8.18;77.64;95321.28;2064960;28;20198;-60
2022/03/30 01:44:32;;;;;;;38.08;18.35;;;;;;;8.19;77.66;95325.53;2064828;28;20205;-61
2022/03/30 01:45:33;;;;;;;38.58;18.38;;;;;;;8.22;77.28;95325.31;2064227;28;20202;-61
2022/03/30 01:46:37;;;;;;;40.30;20.13;;;;;;;8.12;79.57;95314.78;2062243;28;20201;-61
2022/03/30 01:47:40;;;;;;;38.80;18.98;;;;;;;8.17;78.79;95311.78;2064179;28;20190;-61
2022/03/30 01:48:42;;;;;;;41.17;18.60;;;;;;;8.27;78.28;95312.69;2064215;28;20191;-61
2022/03/30 01:49:45;;;;;;;39.60;18.65;;;;;;;8.31;78.22;95314.97;2063710;28;20194;-61
2022/03/30 01:50:46;;;;;;;39.42;18.50;;;;;;;8.34;78.29;95313.88;2064521;28;20230;-61
2022/03/30 01:51:49;;;;;;;35.67;18.13;;;;;;;8.29;78.72;95305.59;2064133;28;20214;-61
2022/03/30 01:52:51;;;;;;;49.90;18.80;;;;;;;8.26;79.09;95304.06;2064933;28;20205;-61
2022/03/30 01:53:53;;;;;;;32.78;19.05;;;;;;;8.29;79.16;95306.44;2064915;28;20190;-61
2022/03/30 01:54:54;;;;;;;34.47;19.08;;;;;;;8.28;79.70;95304.75;2064730;28;20195;-61
2022/03/30 01:55:56;;;;;;;44.58;19.00;;;;;;;8.24;80.22;95303.34;2064417;28;20240;-61
2022/03/30 01:56:57;;;;;;;37.05;16.88;;;;;;;8.28;80.24;95303.94;2064414;28;20716;-61
2022/03/30 01:57:59;;;;;;;36.28;17.60;;;;;;;8.32;80.07;95298.34;2062893;28;20574;-61
2022/03/30 01:59:00;;;;;;;39.20;19.80;;;;;;;8.37;80.41;95311.03;2064785;28;20287;-61
2022/03/30 02:00:13;;;;;;;34.47;17.23;;;;;;;8.35;79.24;95299.91;2064698;28;20194;-61
2022/03/30 02:01:14;;;;;;;32.35;17.35;;;;;;;8.42;78.14;95297.66;2064160;28;20365;-61
2022/03/30 02:02:15;;;;;;;32.27;18.47;;;;;;;8.44;77.25;95293.13;2064629;28;20271;-61
2022/03/30 02:03:17;;;;;;;34.42;17.40;;;;;;;8.46;77.59;95302.47;2064826;28;20205;-61
2022/03/30 02:04:19;;;;;;;37.65;17.77;;;;;;;8.47;77.61;95287.69;2064706;28;20237;-61
2022/03/30 02:05:20;;;;;;;38.08;18.10;;;;;;;8.49;77.62;95281.38;2064288;28;20202;-63
2022/03/30 02:06:24;;;;;;;40.15;18.17;;;;;;;8.56;78.34;95286.91;2064805;28;20198;-61
2022/03/30 02:07:25;;;;;;;40.05;20.25;;;;;;;8.51;78.75;95287.28;2064590;28;20245;-61
2022/03/30 02:08:28;;;;;;;33.83;17.55;;;;;;;8.48;78.75;95286.72;2064742;28;20206;-61
2022/03/30 02:09:30;;;;;;;32.88;18.05;;;;;;;8.47;79.13;95287.69;2064533;28;20195;-61
2022/03/30 02:10:32;;;;;;;33.30;17.83;;;;;;;8.43;78.88;95273.22;2064053;28;20664;-61
2022/03/30 02:11:34;;;;;;;31.58;17.70;;;;;;;8.46;78.55;95284.22;2064661;28;20198;-61
2022/03/30 02:12:37;;;;;;;31.63;18.20;;;;;;;8.36;79.17;95283.28;2064076;28;20205;-61
2022/03/30 02:13:38;;;;;;;35.35;17.60;;;;;;;8.37;79.63;95277.13;2064752;28;20653;-61
2022/03/30 02:14:41;;;;;;;46.55;18.15;;;;;;;8.47;79.05;95272.84;2064750;28;20578;-61
2022/03/30 02:15:42;;;;;;;45.10;19.90;;;;;;;8.23;79.25;95265.19;2068893;28;20232;-61
2022/03/30 02:16:44;;;;;;;39.83;18.10;;;;;;;8.31;78.69;95265.41;2068474;28;20194;-61
2022/03/30 02:17:46;;;;;;;38.35;17.75;;;;;;;8.34;78.37;95261.72;2064670;28;20233;-61
2022/03/30 02:18:47;;;;;;;30.70;18.02;;;;;;;8.32;78.32;95264.44;2064715;28;20213;-61
2022/03/30 02:19:48;;;;;;;42.92;16.90;;;;;;;8.36;79.12;95272.84;2064465;28;20187;-61
2022/03/30 02:20:50;;;;;;;51.17;18.83;;;;;;;8.35;79.48;95268.59;2064262;28;20217;-61
2022/03/30 02:21:52;;;;;;;33.80;18.42;;;;;;;8.20;79.97;95260.22;2064633;28;20204;-61
2022/03/30 02:22:53;;;;;;;39.13;18.08;;;;;;;8.11;81.20;95267.00;2064022;28;20548;-61
2022/03/30 02:23:54;;;;;;;34.40;18.15;;;;;;;8.17;80.88;95260.44;2064646;28;20214;-61
2022/03/30 02:24:56;;;;;;;40.88;18.45;;;;;;;8.24;80.95;95256.41;2064571;28;20323;-61
2022/03/30 02:25:58;;;;;;;38.05;18.60;;;;;;;8.28;80.19;95264.81;2062670;28;20368;-60
2022/03/30 02:26:59;;;;;;;35.65;16.65;;;;;;;8.24;80.00;95261.63;2063972;28;20205;-61
2022/03/30 02:28:03;;;;;;;36.05;18.10;;;;;;;8.22;80.48;95262.72;2064124;28;20201;-61
2022/03/30 02:29:05;;;;;;;40.17;18.00;;;;;;;8.19;80.44;95257.72;2064678;28;20218;-61
2022/03/30 02:30:08;;;;;;;45.47;19.90;;;;;;;8.22;79.85;95249.66;2064645;28;20842;-61
2022/03/30 02:31:13;;;;;;;35.55;17.75;;;;;;;8.22;79.50;95258.31;2063742;28;20249;-61
2022/03/30 02:32:15;;;;;;;37.55;19.52;;;;;;;8.28;79.12;95257.00;2063840;28;20207;-61
2022/03/30 02:33:16;;;;;;;37.40;17.20;;;;;;;8.27;78.08;95260.53;2064471;28;20197;-60
2022/03/30 02:34:17;;;;;;;30.80;17.60;;;;;;;8.26;78.57;95253.69;2064560;28;20202;-61
2022/03/30 02:35:19;;;;;;;31.77;17.33;;;;;;;8.31;79.00;95256.72;2064681;28;20206;-61
2022/03/30 02:36:21;;;;;;;36.10;18.80;;;;;;;8.37;79.07;95265.84;2062935;28;20896;-61
2022/03/30 02:37:22;;;;;;;34.47;17.95;;;;;;;8.40;78.98;95263.81;2064455;28;20206;-61
2022/03/30 02:38:24;;;;;;;35.00;17.73;;;;;;;8.43;78.79;95255.78;2064502;28;20209;-61
2022/03/30 02:39:25;;;;;;;41.25;16.63;;;;;;;8.39;78.25;95266.53;2064611;28;20190;-61
2022/03/30 02:40:27;;;;;;;39.13;18.52;;;;;;;8.43;78.04;95261.00;2063518;28;20202;-61
2022/03/30 02:41:29;;;;;;;33.60;17.33;;;;;;;8.61;78.18;95258.66;2064394;28;20208;-61
2022/03/30 02:42:30;;;;;;;40.28;18.40;;;;;;;8.59;79.39;95259.75;2063305;28;20205;-61
2022/03/30 02:43:33;;;;;;;38.42;18.10;;;;;;;8.19;79.02;95248.13;2063740;28;20198;-61
2022/03/30 02:44:36;;;;;;;42.03;17.50;;;;;;;8.11;78.62;95258.34;2064556;28;20251;-61
2022/03/30 02:45:38;;;;;;;40.28;17.67;;;;;;;8.19;77.92;95252.50;2064013;28;20199;-61
2022/03/30 02:46:40;;;;;;;34.85;17.02;;;;;;;8.24;77.91;95259.00;2064227;28;20208;-61
2022/03/30 02:49:02;;;;;;;46.15;18.42;;;;;;;8.25;79.35;95252.00;2063539;28;20660;-61
2022/03/30 02:50:04;;;;;;;35.50;17.10;;;;;;;8.27;79.54;95244.88;2063976;28;20197;-62
2022/03/30 02:51:07;;;;;;;35.00;18.90;;;;;;;8.31;80.27;95246.28;2063537;28;20233;-61
2022/03/30 02:52:08;;;;;;;39.10;19.23;;;;;;;8.37;79.75;95251.03;2064056;28;20217;-61
2022/03/30 02:53:10;;;;;;;43.47;18.00;;;;;;;8.41;78.37;95249.88;2063366;28;20194;-61
2022/03/30 02:54:12;;;;;;;44.10;18.88;;;;;;;8.36;79.22;95248.56;2064354;28;20221;-61
2022/03/30 02:55:14;;;;;;;38.10;18.38;;;;;;;8.28;79.14;95249.16;2064449;28;20526;-62
2022/03/30 02:56:15;;;;;;;30.48;16.73;;;;;;;8.22;79.17;95247.06;2063820;28;20249;-62
2022/03/30 02:57:17;;;;;;;35.60;18.42;;;;;;;8.19;80.18;95244.69;2064367;28;20195;-61
2022/03/30 02:58:21;;;;;;;45.45;18.42;;;;;;;8.08;81.53;95249.00;2064397;28;20561;-61
2022/03/30 02:59:23;;;;;;;30.70;17.27;;;;;;;7.95;83.04;95247.50;2064324;28;20646;-62
2022/03/30 03:00:24;;;;;;;38.85;19.08;;;;;;;7.96;83.91;95244.75;2063884;28;20191;-62
2022/03/30 03:01:25;;;;;;;36.78;18.83;;;;;;;7.97;85.20;95232.56;2064230;28;20198;-61
2022/03/30 03:02:27;;;;;;;37.28;16.80;;;;;;;8.01;84.74;95239.16;2064348;28;20208;-62
2022/03/30 03:03:28;;;;;;;29.83;17.30;;;;;;;8.08;85.22;95233.34;2064329;28;20213;-62
2022/03/30 03:04:31;;;;;;;40.65;18.58;;;;;;;8.13;84.70;95232.97;2064492;28;20209;-62
2022/03/30 03:05:32;;;;;;;36.35;18.67;;;;;;;8.14;84.09;95228.59;2063906;28;20213;-61
2022/03/30 03:06:34;;;;;;;32.10;17.20;;;;;;;8.20;84.61;95228.91;2064217;28;20201;-62
2022/03/30 03:07:35;;;;;;;37.47;20.67;;;;;;;8.27;84.47;95230.09;2064248;28;20546;-61
2022/03/30 03:08:37;;;;;;;43.88;18.95;;;;;;;8.26;84.82;95225.00;2064188;28;20194;-62
2022/03/30 03:09:38;;;;;;;31.50;18.55;;;;;;;8.30;84.34;95226.41;2064358;28;20205;-61
2022/03/30 03:10:42;;;;;;;38.03;18.08;;;;;;;8.26;84.11;95227.59;2063582;28;20579;-61
2022/03/30 03:11:44;;;;;;;37.20;18.98;;;;;;;8.16;84.34;95231.91;2064234;28;20213;-61
2022/03/30 03:12:46;;;;;;;41.22;16.45;;;;;;;8.04;83.25;95236.34;2064397;28;20635;-61
2022/03/30 03:13:48;;;;;;;42.17;19.40;;;;;;;7.65;85.54;95236.75;2063623;28;20194;-61
2022/03/30 03:14:49;;;;;;;37.15;18.05;;;;;;;7.50;86.37;95230.97;2064397;28;20234;-64
2022/03/30 03:15:51;;;;;;;40.47;18.98;;;;;;;7.59;86.07;95223.41;2063074;28;20572;-61
2022/03/30 03:16:52;;;;;;;34.60;18.67;;;;;;;7.61;86.33;95224.94;2063748;28;20198;-62
2022/03/30 03:17:54;;;;;;;40.03;19.10;;;;;;;7.69;85.75;95230.34;2064323;28;20212;-61
2022/03/30 03:18:56;;;;;;;29.98;16.65;;;;;;;7.73;81.46;95229.16;2064180;28;20206;-62
2022/03/30 03:19:57;;;;;;;33.60;17.55;;;;;;;7.78;80.87;95227.97;2063902;28;20198;-61
2022/03/30 03:20:59;;;;;;;37.83;18.40;;;;;;;7.83;80.31;95223.22;2063040;28;20231;-62
2022/03/30 03:22:00;;;;;;;40.58;19.35;;;;;;;7.92;80.43;95225.09;2064218;28;20201;-62
2022/03/30 03:23:02;;;;;;;36.75;18.63;;;;;;;7.87;80.86;95227.25;2063539;28;20216;-62
2022/03/30 03:24:05;;;;;;;35.25;18.63;;;;;;;7.84;81.89;95225.72;2064259;28;20206;-62
2022/03/30 03:25:08;;;;;;;37.30;18.40;;;;;;;7.82;82.25;95225.00;2064000;28;20209;-61
2022/03/30 03:26:10;;;;;;;42.22;18.92;;;;;;;7.85;82.99;95229.16;2062853;28;20228;-62
2022/03/30 03:27:12;;;;;;;39.03;18.48;;;;;;;7.88;84.04;95223.69;2063508;28;20199;-62
2022/03/30 03:28:14;;;;;;;35.92;18.63;;;;;;;7.92;83.97;95222.50;2063613;28;20212;-61
2022/03/30 03:29:15;;;;;;;46.05;19.70;;;;;;;7.98;84.26;95219.41;2064308;28;20209;-61
2022/03/30 03:30:18;;;;;;;39.47;20.63;;;;;;;8.01;84.49;95219.13;2064251;28;20203;-62
2022/03/30 03:31:19;;;;;;;42.05;19.30;;;;;;;8.02;84.97;95220.81;2063377;28;20228;-61
2022/03/30 03:32:21;;;;;;;40.92;19.67;;;;;;;7.98;85.04;95227.22;2062852;28;20285;-62
2022/03/30 03:33:23;;;;;;;35.88;19.23;;;;;;;7.93;85.05;95229.34;2064011;28;20206;-62
2022/03/30 03:34:24;;;;;;;38.40;19.30;;;;;;;7.82;85.33;95219.81;2063544;28;20823;-62
2022/03/30 03:35:26;;;;;;;32.72;19.63;;;;;;;7.89;85.01;95220.13;2063837;28;20233;-61
2022/03/30 03:36:28;;;;;;;38.65;18.20;;;;;;;7.80;85.76;95221.69;2063674;28;20201;-61
2022/03/30 03:37:29;;;;;;;43.45;20.58;;;;;;;7.86;86.08;95215.16;2063744;28;20618;-62
2022/03/30 03:38:31;;;;;;;42.65;19.50;;;;;;;7.91;86.41;95215.63;2064306;28;20194;-61
2022/03/30 03:39:32;;;;;;;43.42;21.20;;;;;;;7.90;85.88;95217.41;2064277;28;20202;-61
2022/03/30 03:40:35;;;;;;;46.67;21.90;;;;;;;7.61;87.72;95230.13;2063600;28;20212;-62
2022/03/30 03:41:36;;;;;;;47.10;21.05;;;;;;;7.37;86.47;95219.00;2064065;28;20654;-61
2022/03/30 03:42:38;;;;;;;43.38;18.20;;;;;;;7.28;83.31;95216.19;2064372;28;20195;-62
2022/03/30 03:43:40;;;;;;;39.10;21.02;;;;;;;7.40;84.20;95224.81;2063763;28;20198;-62
2022/03/30 03:44:43;;;;;;;39.90;19.85;;;;;;;7.40;84.60;95219.59;2064010;28;20203;-62
2022/03/30 03:45:44;;;;;;;39.85;20.60;;;;;;;7.40;84.02;95219.59;2063342;28;20255;-62
2022/03/30 03:46:46;;;;;;;34.55;19.20;;;;;;;7.39;84.56;95223.19;2063001;28;20708;-62
2022/03/30 03:47:48;;;;;;;51.67;18.58;;;;;;;7.32;85.06;95222.81;2064115;28;20286;-62
2022/03/30 03:48:50;;;;;;;44.95;20.35;;;;;;;7.36;83.23;95223.41;2064146;28;20234;-62
2022/03/30 03:49:51;;;;;;;33.17;17.98;;;;;;;7.36;81.92;95218.19;2063405;28;20196;-62
2022/03/30 03:50:53;;;;;;;39.20;17.98;;;;;;;7.31;82.34;95212.50;2063745;28;20226;-62
2022/03/30 03:51:55;;;;;;;41.47;18.65;;;;;;;7.48;82.76;95225.03;2063980;28;20214;-62
2022/03/30 03:52:56;;;;;;;35.08;18.70;;;;;;;7.56;82.92;95224.44;2064134;28;20209;-62
2022/03/30 03:53:58;;;;;;;34.85;17.65;;;;;;;7.57;80.36;95220.09;2064005;28;20198;-62
2022/03/30 03:54:59;;;;;;;36.45;16.30;;;;;;;7.60;81.99;95223.25;2064087;28;20685;-62
2022/03/30 03:56:04;;;;;;;33.38;17.90;;;;;;;7.61;83.03;95218.91;2063630;28;20769;-62
2022/03/30 03:57:06;;;;;;;41.00;19.10;;;;;;;7.55;83.23;95212.38;2064310;28;20202;-62
2022/03/30 03:58:09;;;;;;;47.35;18.25;;;;;;;7.47;84.17;95212.97;2064427;28;20205;-62
2022/03/30 03:59:11;;;;;;;57.50;19.75;;;;;;;7.47;85.27;95214.78;2065732;28;20256;-62
2022/03/30 04:00:14;;;;;;;32.28;18.83;;;;;;;7.52;84.64;95210.81;2065495;28;20213;-63
2022/03/30 04:01:15;;;;;;;46.90;19.05;;;;;;;7.59;83.44;95210.38;2064382;28;20226;-62
2022/03/30 04:02:17;;;;;;;41.00;18.05;;;;;;;7.60;81.52;95217.22;2065510;28;20205;-62
2022/03/30 04:03:19;;;;;;;43.22;16.20;;;;;;;7.61;80.18;95214.50;2065674;28;20273;-62
2022/03/30 04:04:21;;;;;;;36.08;17.35;;;;;;;7.62;81.52;95213.53;2065629;28;20814;-62
2022/03/30 04:05:22;;;;;;;35.20;17.35;;;;;;;7.60;80.80;95207.63;2065277;28;20635;-63
2022/03/30 04:06:25;;;;;;;35.60;17.70;;;;;;;7.63;80.33;95223.03;2065244;28;20564;-63
2022/03/30 04:07:26;;;;;;;34.08;17.45;;;;;;;7.66;79.59;95214.97;2064459;28;20199;-63
2022/03/30 04:08:28;;;;;;;34.17;17.60;;;;;;;7.66;79.89;95207.16;2065752;28;20190;-63
2022/03/30 04:09:29;;;;;;;39.30;18.17;;;;;;;7.62;81.31;95213.53;2069385;28;20201;-63
2022/03/30 04:10:31;;;;;;;28.67;16.40;;;;;;;7.63;81.58;95215.22;2067129;28;20210;-63
2022/03/30 04:11:32;;;;;;;50.25;20.10;;;;;;;7.60;82.09;95214.63;2065127;28;20198;-64
2022/03/30 04:12:34;;;;;;;32.70;17.13;;;;;;;7.61;81.01;95216.28;2064040;28;20214;-64
2022/03/30 04:13:36;;;;;;;42.00;18.23;;;;;;;7.58;80.62;95203.50;2065584;28;20202;-64
2022/03/30 04:14:38;;;;;;;34.83;16.90;;;;;;;7.60;80.55;95209.41;2064885;28;20689;-65
2022/03/30 04:15:39;;;;;;;35.33;17.67;;;;;;;7.62;80.79;95207.50;2064880;28;20705;-65
2022/03/30 04:16:41;;;;;;;60.58;20.30;;;;;;;7.63;81.17;95217.81;2064453;28;20203;-65
2022/03/30 04:17:45;;;;;;;41.13;19.33;;;;;;;7.64;81.25;95216.84;2065679;28;20823;-65
2022/03/30 04:18:47;;;;;;;47.60;18.83;;;;;;;7.61;81.46;95211.91;2065218;28;20369;-65
2022/03/30 04:19:48;;;;;;;43.67;20.00;;;;;;;7.58;81.79;95212.13;2065535;28;20191;-65
2022/03/30 04:20:50;;;;;;;40.95;17.35;;;;;;;7.55;81.46;95212.38;2065057;28;20246;-65
2022/03/30 04:21:52;;;;;;;46.55;17.33;;;;;;;7.52;81.71;95215.22;2065625;28;20199;-65
2022/03/30 04:22:53;;;;;;;38.42;18.92;;;;;;;7.56;83.62;95211.41;2065192;28;20198;-65
2022/03/30 04:23:55;;;;;;;45.45;17.67;;;;;;;7.54;82.49;95213.31;2065574;28;20214;-65
2022/03/30 04:24:56;;;;;;;43.63;17.55;;;;;;;7.52;81.53;95208.22;2065570;28;20819;-65
2022/03/30 04:25:58;;;;;;;34.70;16.10;;;;;;;7.53;81.98;95209.06;2065058;28;20237;-65
2022/03/30 04:26:59;;;;;;;49.78;15.68;;;;;;;7.50;83.21;95209.31;2072995;28;20209;-66
2022/03/30 04:28:00;;;;;;;33.55;15.55;;;;;;;7.51;82.26;95214.41;2072879;28;20206;-66
2022/03/30 04:29:03;;;;;;;36.22;15.40;;;;;;;7.52;81.75;95212.63;2064872;28;20202;-66
2022/03/30 04:30:04;;;;;;;29.60;15.57;;;;;;;7.49;82.99;95208.47;2065464;28;20199;-66
2022/03/30 04:31:11;;;;;;;39.97;15.65;;;;;;;7.49;83.94;95208.47;2064830;28;20230;-66
2022/03/30 04:32:13;;;;;;;41.25;18.30;;;;;;;7.47;85.38;95209.56;2063535;28;20828;-66
2022/03/30 04:33:14;;;;;;;36.60;15.30;;;;;;;7.44;84.36;95212.38;2064971;28;20198;-66
2022/03/30 04:34:16;;;;;;;45.10;17.20;;;;;;;7.43;85.14;95205.50;2065564;28;20199;-66
2022/03/30 04:35:22;;;;;;;39.08;17.00;;;;;;;7.44;84.95;95215.81;2065337;28;20203;-66
2022/03/30 04:36:23;;;;;;;44.53;15.30;;;;;;;7.35;84.51;95205.28;2064649;28;20826;-66
2022/03/30 04:37:25;;;;;;;41.20;14.98;;;;;;;7.39;84.51;95206.69;2065470;28;20559;-66
2022/03/30 04:38:26;;;;;;;34.67;15.35;;;;;;;7.38;85.21;95205.06;2065387;28;20635;-66
2022/03/30 04:39:28;;;;;;;41.78;15.93;;;;;;;7.39;85.81;95204.94;2065471;28;20198;-66
2022/03/30 04:40:29;;;;;;;38.92;15.70;;;;;;;7.36;85.38;95201.75;2065046;28;20555;-65
2022/03/30 04:41:31;;;;;;;34.75;14.63;;;;;;;7.40;85.56;95210.97;2065293;28;20205;-66
2022/03/30 04:42:35;;;;;;;39.10;16.25;;;;;;;7.42;86.11;95211.69;2064441;28;20244;-66
2022/03/30 04:43:37;;;;;;;31.73;14.48;;;;;;;7.44;86.48;95202.78;2065298;28;20199;-65
2022/03/30 04:44:38;;;;;;;43.97;15.05;;;;;;;7.42;85.94;95206.47;2064214;28;20563;-66
2022/03/30 04:45:40;;;;;;;30.77;16.25;;;;;;;7.39;85.32;95207.56;2064836;28;20206;-65
2022/03/30 04:46:41;;;;;;;38.90;16.35;;;;;;;7.38;86.12;95205.06;2065274;28;20281;-65
2022/03/30 04:47:44;;;;;;;39.00;17.58;;;;;;;7.40;86.67;95209.19;2065385;28;20218;-65
2022/03/30 04:48:45;;;;;;;32.50;14.90;;;;;;;7.38;86.74;95207.66;2065427;28;20213;-64
2022/03/30 04:49:46;;;;;;;44.33;15.38;;;;;;;7.38;87.55;95205.06;2065449;28;20198;-65
2022/03/30 04:50:49;;;;;;;33.38;15.68;;;;;;;7.32;86.77;95204.56;2064136;28;20233;-65
2022/03/30 04:51:51;;;;;;;29.55;15.13;;;;;;;7.31;88.18;95204.69;2064847;28;20199;-64
2022/03/30 04:52:52;;;;;;;37.13;15.48;;;;;;;7.25;87.55;95198.22;2065175;28;20210;-64